createdAt,value
2018-11-12T00:00:30.680Z,10.73898
2018-11-12T00:01:28.399Z,10.73898
2018-11-12T00:02:26.129Z,10.73898
2018-11-12T00:03:22.860Z,10.73898
2018-11-12T00:04:23.855Z,10.73898
2018-11-12T00:05:21.679Z,10.73898
2018-11-12T00:06:18.315Z,10.73898
2018-11-12T00:07:19.124Z,10.73898
2018-11-12T00:08:16.646Z,10.73898
2018-11-12T00:09:15.688Z,10.73898
2018-11-12T00:10:13.601Z,10.73898
2018-11-12T00:11:11.661Z,10.78183
2018-11-12T00:12:08.405Z,10.73898
2018-11-12T00:13:11.515Z,10.73898
2018-11-12T00:14:10.554Z,10.73898
2018-11-12T00:15:20.342Z,10.73898
2018-11-12T00:16:21.549Z,10.73898
2018-11-12T00:17:18.654Z,10.73898
2018-11-12T00:18:18.184Z,10.73898
2018-11-12T00:19:14.785Z,10.73898
2018-11-12T00:20:19.062Z,10.73898
2018-11-12T00:21:20.539Z,10.73898
2018-11-12T00:22:19.414Z,10.73898
2018-11-12T00:23:20.921Z,10.73898
2018-11-12T00:24:19.860Z,10.73898
2018-11-12T00:25:17.397Z,10.73898
2018-11-12T00:26:13.460Z,10.73898
2018-11-12T00:27:10.687Z,10.65327
2018-11-12T00:28:07.931Z,10.73898
2018-11-12T00:29:05.317Z,10.73898
2018-11-12T00:30:06.469Z,10.73898
2018-11-12T00:31:03.933Z,10.73898
2018-11-12T00:32:00.565Z,10.73898
2018-11-12T00:32:58.451Z,10.73898
2018-11-12T00:34:06.627Z,10.73898
2018-11-12T00:35:04.097Z,10.73898
2018-11-12T00:36:08.772Z,10.73898
2018-11-12T00:37:07.558Z,10.73898
2018-11-12T00:38:06.532Z,10.73898
2018-11-12T00:39:06.922Z,10.73898
2018-11-12T00:40:05.538Z,10.73898
2018-11-12T00:41:07.841Z,10.73898
2018-11-12T00:42:08.745Z,10.73898
2018-11-12T00:43:10.047Z,10.73898
2018-11-12T00:44:14.259Z,10.73898
2018-11-12T00:45:11.278Z,10.73898
2018-11-12T00:46:12.960Z,10.73898
2018-11-12T00:47:19.586Z,10.65327
2018-11-12T00:48:16.725Z,10.73898
2018-11-12T00:49:14.387Z,10.73898
2018-11-12T00:50:12.374Z,10.65327
2018-11-12T00:51:16.056Z,10.73898
2018-11-12T00:52:16.191Z,10.73898
2018-11-12T00:53:13.557Z,10.65327
2018-11-12T00:54:15.931Z,10.65327
2018-11-12T00:55:14.790Z,10.73898
2018-11-12T00:56:20.828Z,10.56757
2018-11-12T00:57:23.460Z,10.73898
2018-11-12T00:58:27.599Z,10.73898
2018-11-12T00:59:25.709Z,10.65327
2018-11-12T01:00:23.657Z,10.73898
2018-11-12T01:01:21.796Z,10.73898
2018-11-12T01:02:22.226Z,10.73898
2018-11-12T01:03:24.471Z,10.73898
2018-11-12T01:04:20.928Z,10.65327
2018-11-12T01:05:18.032Z,10.73898
2018-11-12T01:06:26.503Z,10.73898
2018-11-12T01:07:29.632Z,10.65327
2018-11-12T01:08:31.790Z,10.73898
2018-11-12T01:09:34.070Z,10.73898
2018-11-12T01:10:35.202Z,10.65327
2018-11-12T01:11:31.702Z,10.52472
2018-11-12T01:12:28.875Z,10.65327
2018-11-12T01:13:25.504Z,10.73898
2018-11-12T01:14:23.557Z,10.65327
2018-11-12T01:15:20.468Z,10.65327
2018-11-12T01:16:22.192Z,10.65327
2018-11-12T01:17:20.019Z,10.65327
2018-11-12T01:18:20.980Z,10.65327
2018-11-12T01:19:23.228Z,10.65327
2018-11-12T01:20:20.983Z,10.73898
2018-11-12T01:21:18.145Z,10.65327
2018-11-12T01:22:16.427Z,10.65327
2018-11-12T01:23:17.187Z,10.65327
2018-11-12T01:24:19.028Z,10.65327
2018-11-12T01:25:18.225Z,10.65327
2018-11-12T01:26:17.990Z,10.65327
2018-11-12T01:27:14.972Z,10.65327
2018-11-12T01:28:18.120Z,10.65327
2018-11-12T01:29:15.892Z,10.65327
2018-11-12T01:30:13.498Z,10.65327
2018-11-12T01:31:18.524Z,10.65327
2018-11-12T01:32:18.238Z,10.65327
2018-11-12T01:33:16.663Z,10.73898
2018-11-12T01:34:13.155Z,10.65327
2018-11-12T01:35:14.294Z,10.65327
2018-11-12T01:36:11.152Z,10.65327
2018-11-12T01:37:09.438Z,10.65327
2018-11-12T01:38:05.820Z,10.65327
2018-11-12T01:39:06.516Z,10.65327
2018-11-12T01:40:06.029Z,10.73898
2018-11-12T01:41:03.538Z,10.65327
2018-11-12T01:42:15.594Z,10.65327
2018-11-12T01:43:15.128Z,10.73898
2018-11-12T01:44:13.020Z,10.65327
2018-11-12T01:45:16.277Z,10.65327
2018-11-12T01:46:13.804Z,10.65327
2018-11-12T01:47:28.130Z,10.65327
2018-11-12T01:48:26.289Z,10.65327
2018-11-12T01:49:23.691Z,10.65327
2018-11-12T01:50:30.948Z,10.65327
2018-11-12T01:51:32.556Z,10.65327
2018-11-12T01:52:30.452Z,10.65327
2018-11-12T01:53:30.315Z,10.65327
2018-11-12T01:54:28.415Z,10.65327
2018-11-12T01:55:28.306Z,10.65327
2018-11-12T01:56:25.413Z,10.52472
2018-11-12T01:57:22.058Z,10.65327
2018-11-12T01:58:19.276Z,10.65327
2018-11-12T01:59:15.705Z,10.61042
2018-11-12T02:00:14.031Z,10.61042
2018-11-12T02:01:10.568Z,10.65327
2018-11-12T02:02:07.985Z,10.65327
2018-11-12T02:03:06.720Z,10.65327
2018-11-12T02:04:21.788Z,10.65327
2018-11-12T02:05:21.786Z,10.65327
2018-11-12T02:06:19.458Z,10.65327
2018-11-12T02:07:16.154Z,10.65327
2018-11-12T02:08:15.570Z,10.65327
2018-11-12T02:09:12.582Z,10.65327
2018-11-12T02:10:19.701Z,10.65327
2018-11-12T02:11:16.941Z,10.65327
2018-11-12T02:12:17.317Z,10.61042
2018-11-12T02:13:15.689Z,10.65327
2018-11-12T02:14:12.807Z,10.65327
2018-11-12T02:15:11.221Z,10.65327
2018-11-12T02:16:08.027Z,10.65327
2018-11-12T02:17:07.205Z,10.61042
2018-11-12T02:18:06.960Z,10.61042
2018-11-12T02:19:06.412Z,10.65327
2018-11-12T02:20:07.498Z,10.65327
2018-11-12T02:21:06.158Z,10.65327
2018-11-12T02:22:03.376Z,10.65327
2018-11-12T02:23:00.445Z,10.61042
2018-11-12T02:23:58.321Z,10.61042
2018-11-12T02:24:54.864Z,10.61042
2018-11-12T02:25:57.288Z,10.65327
2018-11-12T02:26:54.071Z,10.61042
2018-11-12T02:27:50.471Z,10.61042
2018-11-12T02:28:48.385Z,10.65327
2018-11-12T02:29:45.458Z,10.61042
2018-11-12T02:30:43.205Z,10.61042
2018-11-12T02:31:39.750Z,10.61042
2018-11-12T02:32:36.875Z,10.61042
2018-11-12T02:33:34.305Z,10.61042
2018-11-12T02:34:32.195Z,10.61042
2018-11-12T02:35:38.036Z,10.61042
2018-11-12T02:36:34.375Z,10.61042
2018-11-12T02:37:30.867Z,10.61042
2018-11-12T02:38:27.860Z,10.61042
2018-11-12T02:39:30.032Z,10.65327
2018-11-12T02:40:27.442Z,10.61042
2018-11-12T02:41:25.240Z,10.52472
2018-11-12T02:42:28.150Z,10.65327
2018-11-12T02:43:25.308Z,10.61042
2018-11-12T02:44:23.798Z,10.65327
2018-11-12T02:45:39.021Z,10.61042
2018-11-12T02:46:35.903Z,10.61042
2018-11-12T02:47:32.151Z,10.61042
2018-11-12T02:48:30.922Z,10.65327
2018-11-12T02:49:32.934Z,10.61042
2018-11-12T02:50:30.401Z,10.61042
2018-11-12T02:51:27.089Z,10.65327
2018-11-12T02:52:31.017Z,10.61042
2018-11-12T02:53:27.513Z,10.61042
2018-11-12T02:54:25.339Z,10.61042
2018-11-12T02:55:28.050Z,10.61042
2018-11-12T02:56:26.053Z,10.52472
2018-11-12T02:57:23.224Z,10.61042
2018-11-12T02:58:26.834Z,10.61042
2018-11-12T02:59:24.012Z,10.61042
2018-11-12T03:00:21.092Z,10.61042
2018-11-12T03:01:24.235Z,10.61042
2018-11-12T03:02:24.528Z,10.65327
2018-11-12T03:03:28.351Z,10.61042
2018-11-12T03:04:24.653Z,10.61042
2018-11-12T03:05:23.059Z,10.61042
2018-11-12T03:06:22.672Z,10.61042
2018-11-12T03:07:21.802Z,10.61042
2018-11-12T03:08:18.205Z,10.61042
2018-11-12T03:09:15.018Z,10.61042
2018-11-12T03:10:14.341Z,10.61042
2018-11-12T03:11:12.007Z,10.61042
2018-11-12T03:12:09.764Z,10.61042
2018-11-12T03:13:08.787Z,10.61042
2018-11-12T03:14:06.604Z,10.61042
2018-11-12T03:15:09.860Z,10.61042
2018-11-12T03:16:08.248Z,10.61042
2018-11-12T03:17:06.953Z,10.61042
2018-11-12T03:18:03.946Z,10.56757
2018-11-12T03:19:04.090Z,10.61042
2018-11-12T03:20:00.356Z,10.56757
2018-11-12T03:20:56.984Z,10.61042
2018-11-12T03:22:05.531Z,10.61042
2018-11-12T03:23:13.728Z,10.56757
2018-11-12T03:24:16.030Z,10.61042
2018-11-12T03:25:12.721Z,10.61042
2018-11-12T03:26:11.653Z,10.56757
2018-11-12T03:27:08.265Z,10.61042
2018-11-12T03:28:07.614Z,10.61042
2018-11-12T03:29:12.897Z,10.56757
2018-11-12T03:30:09.996Z,10.61042
2018-11-12T03:31:11.792Z,10.61042
2018-11-12T03:32:08.292Z,10.61042
2018-11-12T03:33:07.138Z,10.56757
2018-11-12T03:34:14.152Z,10.56757
2018-11-12T03:35:17.767Z,10.56757
2018-11-12T03:36:17.790Z,10.56757
2018-11-12T03:37:15.165Z,10.56757
2018-11-12T03:38:11.713Z,10.56757
2018-11-12T03:39:11.715Z,10.56757
2018-11-12T03:40:23.542Z,10.56757
2018-11-12T03:41:23.613Z,10.56757
2018-11-12T03:42:25.337Z,10.56757
2018-11-12T03:43:29.627Z,10.61042
2018-11-12T03:44:27.392Z,10.56757
2018-11-12T03:45:29.045Z,10.56757
2018-11-12T03:46:27.403Z,10.56757
2018-11-12T03:47:24.790Z,10.56757
2018-11-12T03:48:25.078Z,10.56757
2018-11-12T03:49:23.724Z,10.56757
2018-11-12T03:50:22.571Z,10.56757
2018-11-12T03:51:21.395Z,10.56757
2018-11-12T03:52:19.693Z,10.56757
2018-11-12T03:53:18.682Z,10.56757
2018-11-12T03:54:29.026Z,10.56757
2018-11-12T03:55:27.760Z,10.56757
2018-11-12T03:56:25.453Z,10.56757
2018-11-12T03:57:31.994Z,10.56757
2018-11-12T03:58:28.091Z,10.56757
2018-11-12T03:59:27.598Z,10.56757
2018-11-12T04:00:23.842Z,10.56757
2018-11-12T04:01:24.211Z,10.56757
2018-11-12T04:02:20.524Z,10.56757
2018-11-12T04:03:22.626Z,10.61042
2018-11-12T04:04:18.959Z,10.56757
2018-11-12T04:05:16.991Z,10.56757
2018-11-12T04:06:17.992Z,10.56757
2018-11-12T04:07:22.288Z,10.56757
2018-11-12T04:08:28.528Z,10.56757
2018-11-12T04:09:34.567Z,10.56757
2018-11-12T04:10:30.976Z,10.56757
2018-11-12T04:11:28.258Z,10.52472
2018-11-12T04:12:27.881Z,10.56757
2018-11-12T04:13:29.013Z,10.56757
2018-11-12T04:14:27.111Z,10.56757
2018-11-12T04:15:26.063Z,10.56757
2018-11-12T04:16:23.097Z,10.56757
2018-11-12T04:17:21.344Z,10.56757
2018-11-12T04:18:22.634Z,10.56757
2018-11-12T04:19:20.593Z,10.56757
2018-11-12T04:20:17.812Z,10.56757
2018-11-12T04:21:14.932Z,10.56757
2018-11-12T04:22:12.045Z,10.56757
2018-11-12T04:23:10.388Z,10.56757
2018-11-12T04:24:06.748Z,10.56757
2018-11-12T04:25:06.158Z,10.56757
2018-11-12T04:26:06.829Z,10.56757
2018-11-12T04:27:07.227Z,10.56757
2018-11-12T04:28:03.744Z,10.56757
2018-11-12T04:29:02.544Z,10.56757
2018-11-12T04:30:09.498Z,10.56757
2018-11-12T04:31:07.017Z,10.56757
2018-11-12T04:32:04.993Z,10.56757
2018-11-12T04:33:02.801Z,10.56757
2018-11-12T04:34:11.304Z,10.56757
2018-11-12T04:35:12.166Z,10.56757
2018-11-12T04:36:08.938Z,10.56757
2018-11-12T04:37:08.185Z,10.56757
2018-11-12T04:38:06.794Z,10.52472
2018-11-12T04:39:05.242Z,10.52472
2018-11-12T04:40:01.706Z,10.56757
2018-11-12T04:40:58.547Z,10.56757
2018-11-12T04:42:00.103Z,10.52472
2018-11-12T04:43:01.196Z,10.56757
2018-11-12T04:43:59.818Z,10.56757
2018-11-12T04:44:57.762Z,10.56757
2018-11-12T04:45:57.649Z,10.52472
2018-11-12T04:46:54.699Z,10.56757
2018-11-12T04:47:53.675Z,10.56757
2018-11-12T04:48:50.408Z,10.52472
2018-11-12T04:49:51.631Z,10.52472
2018-11-12T04:50:48.783Z,10.56757
2018-11-12T04:51:46.039Z,10.52472
2018-11-12T04:52:44.457Z,10.56757
2018-11-12T04:53:43.360Z,10.52472
2018-11-12T04:54:40.622Z,10.52472
2018-11-12T04:55:37.652Z,10.52472
2018-11-12T04:56:34.997Z,10.43902
2018-11-12T04:57:34.346Z,10.52472
2018-11-12T04:58:30.466Z,10.52472
2018-11-12T04:59:27.038Z,10.52472
2018-11-12T05:00:23.601Z,10.52472
2018-11-12T05:01:22.628Z,10.52472
2018-11-12T05:02:19.002Z,10.52472
2018-11-12T05:03:17.786Z,10.56757
2018-11-12T05:04:13.988Z,10.56757
2018-11-12T05:05:14.236Z,10.52472
2018-11-12T05:06:20.185Z,10.52472
2018-11-12T05:07:32.054Z,10.56757
2018-11-12T05:08:35.040Z,10.52472
2018-11-12T05:09:32.535Z,10.52472
2018-11-12T05:10:28.458Z,10.52472
2018-11-12T05:11:13.970Z,10.52472
2018-11-12T05:12:10.895Z,10.52472
2018-11-12T05:13:08.500Z,10.52472
2018-11-12T05:14:07.731Z,10.52472
2018-11-12T05:15:10.269Z,10.52472
2018-11-12T05:16:06.387Z,10.52472
2018-11-12T05:17:02.818Z,10.52472
2018-11-12T05:18:02.153Z,10.52472
2018-11-12T05:19:04.955Z,10.52472
2018-11-12T05:20:04.499Z,10.52472
2018-11-12T05:21:03.714Z,10.52472
2018-11-12T05:22:02.048Z,10.52472
2018-11-12T05:22:58.873Z,10.52472
2018-11-12T05:23:57.868Z,10.52472
2018-11-12T05:24:55.548Z,10.52472
2018-11-12T05:25:52.393Z,10.52472
2018-11-12T05:26:50.717Z,10.43902
2018-11-12T05:27:48.334Z,10.52472
2018-11-12T05:28:48.815Z,10.52472
2018-11-12T05:29:45.390Z,10.52472
2018-11-12T05:30:43.975Z,10.52472
2018-11-12T05:31:47.549Z,10.52472
2018-11-12T05:32:43.681Z,10.52472
2018-11-12T05:33:43.956Z,10.52472
2018-11-12T05:34:40.151Z,10.52472
2018-11-12T05:35:43.574Z,10.52472
2018-11-12T05:36:42.991Z,10.52472
2018-11-12T05:37:41.356Z,10.52472
2018-11-12T05:38:40.472Z,10.52472
2018-11-12T05:39:38.286Z,10.52472
2018-11-12T05:40:37.148Z,10.52472
2018-11-12T05:41:34.199Z,10.39617
2018-11-12T05:42:30.511Z,10.52472
2018-11-12T05:43:27.308Z,10.52472
2018-11-12T05:44:24.546Z,10.52472
2018-11-12T05:45:21.499Z,10.52472
2018-11-12T05:46:20.887Z,10.52472
2018-11-12T05:47:20.527Z,10.52472
2018-11-12T05:48:23.152Z,10.52472
2018-11-12T05:49:23.121Z,10.52472
2018-11-12T05:50:24.531Z,10.52472
2018-11-12T05:51:22.034Z,10.52472
2018-11-12T05:52:21.300Z,10.52472
2018-11-12T05:53:19.035Z,10.52472
2018-11-12T05:54:17.501Z,10.52472
2018-11-12T05:55:13.933Z,10.52472
2018-11-12T05:56:10.838Z,10.52472
2018-11-12T05:57:07.216Z,10.52472
2018-11-12T05:58:09.776Z,10.52472
2018-11-12T05:59:10.506Z,10.52472
2018-11-12T06:00:06.873Z,10.52472
2018-11-12T06:01:04.989Z,10.52472
2018-11-12T06:02:01.494Z,10.52472
2018-11-12T06:02:59.964Z,10.52472
2018-11-12T06:03:57.810Z,10.52472
2018-11-12T06:04:55.123Z,10.52472
2018-11-12T06:05:52.788Z,10.48187
2018-11-12T06:06:49.145Z,10.52472
2018-11-12T06:07:46.622Z,10.52472
2018-11-12T06:08:43.215Z,10.48187
2018-11-12T06:09:39.842Z,10.52472
2018-11-12T06:10:36.472Z,10.52472
2018-11-12T06:11:32.573Z,10.48187
2018-11-12T06:12:33.678Z,10.52472
2018-11-12T06:13:32.825Z,10.48187
2018-11-12T06:14:40.614Z,10.48187
2018-11-12T06:15:36.865Z,10.52472
2018-11-12T06:16:33.936Z,10.52472
2018-11-12T06:17:35.480Z,10.52472
2018-11-12T06:18:32.849Z,10.52472
2018-11-12T06:19:31.513Z,10.52472
2018-11-12T06:20:34.825Z,10.52472
2018-11-12T06:21:34.749Z,10.52472
2018-11-12T06:22:32.792Z,10.52472
2018-11-12T06:23:29.504Z,10.52472
2018-11-12T06:24:27.359Z,10.48187
2018-11-12T06:25:23.771Z,10.48187
2018-11-12T06:26:26.534Z,10.48187
2018-11-12T06:27:23.953Z,10.48187
2018-11-12T06:28:29.001Z,10.48187
2018-11-12T06:29:32.690Z,10.48187
2018-11-12T06:30:30.018Z,10.48187
2018-11-12T06:31:38.150Z,10.52472
2018-11-12T06:32:35.733Z,10.52472
2018-11-12T06:33:32.675Z,10.48187
2018-11-12T06:34:32.310Z,10.48187
2018-11-12T06:35:29.133Z,10.48187
2018-11-12T06:36:27.504Z,10.48187
2018-11-12T06:37:25.444Z,10.48187
2018-11-12T06:38:21.714Z,10.48187
2018-11-12T06:39:18.258Z,10.48187
2018-11-12T06:40:17.691Z,10.48187
2018-11-12T06:41:16.510Z,10.48187
2018-11-12T06:42:13.717Z,10.48187
2018-11-12T06:43:10.090Z,10.52472
2018-11-12T06:44:13.365Z,10.48187
2018-11-12T06:45:11.647Z,10.48187
2018-11-12T06:46:08.801Z,10.48187
2018-11-12T06:47:07.443Z,10.48187
2018-11-12T06:48:05.883Z,10.48187
2018-11-12T06:49:04.016Z,10.48187
2018-11-12T06:50:03.544Z,10.48187
2018-11-12T06:51:01.039Z,10.48187
2018-11-12T06:51:59.294Z,10.48187
2018-11-12T06:53:01.723Z,10.48187
2018-11-12T06:54:05.407Z,10.48187
2018-11-12T06:55:04.101Z,10.48187
2018-11-12T06:56:02.990Z,10.48187
2018-11-12T06:56:59.577Z,10.35332
2018-11-12T06:58:07.391Z,10.48187
2018-11-12T06:59:07.647Z,10.48187
2018-11-12T07:00:05.767Z,10.48187
2018-11-12T07:01:02.998Z,10.48187
2018-11-12T07:02:01.846Z,10.48187
2018-11-12T07:03:04.725Z,10.48187
2018-11-12T07:04:04.962Z,10.48187
2018-11-12T07:05:02.069Z,10.48187
2018-11-12T07:05:59.324Z,10.48187
2018-11-12T07:06:57.897Z,10.48187
2018-11-12T07:07:58.071Z,10.48187
2018-11-12T07:08:58.400Z,10.48187
2018-11-12T07:09:55.838Z,10.48187
2018-11-12T07:10:53.800Z,10.48187
2018-11-12T07:11:56.856Z,10.35332
2018-11-12T07:12:53.339Z,10.48187
2018-11-12T07:13:50.551Z,10.48187
2018-11-12T07:14:47.166Z,10.48187
2018-11-12T07:15:46.335Z,10.48187
2018-11-12T07:16:42.399Z,10.48187
2018-11-12T07:17:38.871Z,10.48187
2018-11-12T07:18:41.134Z,10.48187
2018-11-12T07:19:37.241Z,10.48187
2018-11-12T07:20:39.344Z,10.48187
2018-11-12T07:21:44.206Z,10.48187
2018-11-12T07:22:40.861Z,10.48187
2018-11-12T07:23:44.605Z,10.48187
2018-11-12T07:24:40.878Z,10.48187
2018-11-12T07:25:46.386Z,10.48187
2018-11-12T07:26:44.476Z,10.35332
2018-11-12T07:27:41.494Z,10.48187
2018-11-12T07:28:39.710Z,10.48187
2018-11-12T07:29:37.755Z,10.48187
2018-11-12T07:30:40.180Z,10.43902
2018-11-12T07:31:44.224Z,10.48187
2018-11-12T07:32:46.290Z,10.43902
2018-11-12T07:33:44.731Z,10.43902
2018-11-12T07:34:40.883Z,10.43902
2018-11-12T07:35:37.018Z,10.43902
2018-11-12T07:36:38.728Z,10.48187
2018-11-12T07:37:40.186Z,10.48187
2018-11-12T07:38:38.596Z,10.43902
2018-11-12T07:39:38.825Z,10.43902
2018-11-12T07:40:43.775Z,10.43902
2018-11-12T07:41:44.304Z,10.31047
2018-11-12T07:42:42.641Z,10.43902
2018-11-12T07:43:41.232Z,10.43902
2018-11-12T07:44:40.071Z,10.43902
2018-11-12T07:45:37.510Z,10.43902
2018-11-12T07:46:33.221Z,10.43902
2018-11-12T07:47:29.406Z,10.43902
2018-11-12T07:48:28.768Z,10.43902
2018-11-12T07:49:25.483Z,10.43902
2018-11-12T07:50:22.611Z,10.43902
2018-11-12T07:51:20.406Z,10.43902
2018-11-12T07:52:16.005Z,10.43902
2018-11-12T07:53:12.011Z,10.43902
2018-11-12T07:54:09.644Z,10.43902
2018-11-12T07:55:06.450Z,10.43902
2018-11-12T07:56:04.172Z,10.43902
2018-11-12T07:57:02.187Z,10.31047
2018-11-12T07:57:59.065Z,10.39617
2018-11-12T07:58:59.126Z,10.39617
2018-11-12T07:59:59.128Z,10.39617
2018-11-12T08:00:53.975Z,10.39617
2018-11-12T08:01:52.338Z,10.39617
2018-11-12T08:02:51.585Z,10.39617
2018-11-12T08:03:48.610Z,10.39617
2018-11-12T08:04:50.355Z,10.39617
2018-11-12T08:05:46.931Z,10.39617
2018-11-12T08:06:41.928Z,10.39617
2018-11-12T08:07:39.308Z,10.39617
2018-11-12T08:08:35.962Z,10.39617
2018-11-12T08:09:32.161Z,10.39617
2018-11-12T08:10:27.114Z,10.39617
2018-11-12T08:11:22.342Z,10.39617
2018-11-12T08:12:20.871Z,10.39617
2018-11-12T08:13:17.648Z,10.39617
2018-11-12T08:14:17.756Z,10.39617
2018-11-12T08:15:25.021Z,10.39617
2018-11-12T08:16:26.736Z,10.39617
2018-11-12T08:17:21.833Z,10.39617
2018-11-12T08:18:16.971Z,10.39617
2018-11-12T08:19:17.478Z,10.39617
2018-11-12T08:20:14.143Z,10.39617
2018-11-12T08:21:09.415Z,10.39617
2018-11-12T08:22:10.642Z,10.39617
2018-11-12T08:23:06.042Z,10.39617
2018-11-12T08:24:01.036Z,10.39617
2018-11-12T08:24:57.885Z,10.39617
2018-11-12T08:26:02.790Z,10.39617
2018-11-12T08:26:58.371Z,10.22477
2018-11-12T08:28:02.314Z,10.39617
2018-11-12T08:29:03.260Z,10.39617
2018-11-12T08:29:58.558Z,10.39617
2018-11-12T08:30:53.340Z,10.39617
2018-11-12T08:31:50.738Z,10.39617
2018-11-12T08:32:45.936Z,10.35332
2018-11-12T08:33:43.841Z,10.39617
2018-11-12T08:34:42.074Z,10.39617
2018-11-12T08:35:36.846Z,10.35332
2018-11-12T08:36:33.677Z,10.39617
2018-11-12T08:37:33.517Z,10.39617
2018-11-12T08:38:34.984Z,10.39617
2018-11-12T08:39:30.431Z,10.39617
2018-11-12T08:40:25.567Z,10.39617
2018-11-12T08:41:28.650Z,10.39617
2018-11-12T08:42:23.515Z,10.39617
2018-11-12T08:43:21.863Z,10.39617
2018-11-12T08:44:20.899Z,10.39617
2018-11-12T08:45:21.860Z,10.35332
2018-11-12T08:46:18.271Z,10.39617
2018-11-12T08:47:27.979Z,10.39617
2018-11-12T08:48:25.850Z,10.39617
2018-11-12T08:49:20.716Z,10.39617
2018-11-12T08:50:31.060Z,10.39617
2018-11-12T08:51:29.946Z,10.39617
2018-11-12T08:52:30.650Z,10.39617
2018-11-12T08:53:31.028Z,10.39617
2018-11-12T08:54:29.857Z,10.39617
2018-11-12T08:55:25.812Z,10.39617
2018-11-12T08:56:23.906Z,10.39617
2018-11-12T08:57:24.964Z,10.39617
2018-11-12T08:58:20.741Z,10.39617
2018-11-12T08:59:16.742Z,10.35332
2018-11-12T09:00:14.651Z,10.35332
2018-11-12T09:01:10.956Z,10.39617
2018-11-12T09:02:09.257Z,10.39617
2018-11-12T09:03:04.697Z,10.39617
2018-11-12T09:04:00.721Z,10.39617
2018-11-12T09:04:56.703Z,10.39617
2018-11-12T09:06:04.531Z,10.35332
2018-11-12T09:06:59.852Z,10.39617
2018-11-12T09:07:55.979Z,10.35332
2018-11-12T09:08:52.364Z,10.39617
2018-11-12T09:09:59.058Z,10.39617
2018-11-12T09:10:54.989Z,10.35332
2018-11-12T09:11:51.990Z,10.22477
2018-11-12T09:12:47.907Z,10.35332
2018-11-12T09:13:45.248Z,10.35332
2018-11-12T09:14:42.532Z,10.39617
2018-11-12T09:15:45.056Z,10.39617
2018-11-12T09:16:43.119Z,10.39617
2018-11-12T09:17:40.142Z,10.39617
2018-11-12T09:18:42.275Z,10.35332
2018-11-12T09:19:40.579Z,10.35332
2018-11-12T09:20:38.138Z,10.35332
2018-11-12T09:21:40.789Z,10.35332
2018-11-12T09:22:36.960Z,10.35332
2018-11-12T09:23:33.771Z,10.35332
2018-11-12T09:24:30.329Z,10.35332
2018-11-12T09:25:26.920Z,10.35332
2018-11-12T09:26:25.173Z,10.39617
2018-11-12T09:27:23.751Z,10.35332
2018-11-12T09:28:23.349Z,10.35332
2018-11-12T09:29:20.610Z,10.35332
2018-11-12T09:30:24.881Z,10.35332
2018-11-12T09:31:22.052Z,10.35332
2018-11-12T09:32:17.753Z,10.35332
2018-11-12T09:33:19.154Z,10.35332
2018-11-12T09:34:20.444Z,10.35332
2018-11-12T09:35:22.198Z,10.35332
2018-11-12T09:36:18.461Z,10.35332
2018-11-12T09:37:32.842Z,10.35332
2018-11-12T09:38:34.569Z,10.35332
2018-11-12T09:39:34.344Z,10.35332
2018-11-12T09:40:32.574Z,10.35332
2018-11-12T09:41:30.090Z,10.35332
2018-11-12T09:42:28.277Z,10.35332
2018-11-12T09:43:27.654Z,10.35332
2018-11-12T09:44:23.943Z,10.35332
2018-11-12T09:45:32.166Z,10.35332
2018-11-12T09:46:35.719Z,10.35332
2018-11-12T09:47:34.380Z,10.35332
2018-11-12T09:49:05.361Z,10.35332
2018-11-12T09:50:05.048Z,10.35332
2018-11-12T09:51:13.040Z,10.35332
2018-11-12T09:52:10.504Z,10.35332
2018-11-12T09:53:10.449Z,10.35332
2018-11-12T09:54:11.987Z,10.35332
2018-11-12T09:55:21.723Z,10.35332
2018-11-12T09:56:23.444Z,10.31047
2018-11-12T09:57:27.157Z,10.35332
2018-11-12T09:58:30.188Z,10.35332
2018-11-12T09:59:32.813Z,10.35332
2018-11-12T10:00:30.093Z,10.35332
2018-11-12T10:01:28.755Z,10.35332
2018-11-12T10:02:26.732Z,10.35332
2018-11-12T10:03:24.655Z,10.31047
2018-11-12T10:04:23.552Z,10.31047
2018-11-12T10:05:23.415Z,10.31047
2018-11-12T10:06:29.537Z,10.31047
2018-11-12T10:07:33.856Z,10.31047
2018-11-12T10:08:32.095Z,10.31047
2018-11-12T10:09:30.476Z,10.31047
2018-11-12T10:10:29.296Z,10.31047
2018-11-12T10:11:27.690Z,10.31047
2018-11-12T10:11:33.857Z,10.31047
2018-11-12T10:11:37.301Z,10.31047
2018-11-12T10:12:32.023Z,10.31047
2018-11-12T10:13:33.571Z,10.31047
2018-11-12T10:14:33.989Z,10.31047
2018-11-12T10:15:32.513Z,10.31047
2018-11-12T10:15:36.858Z,10.31047
2018-11-12T10:16:38.291Z,10.31047
2018-11-12T10:16:42.464Z,10.31047
2018-11-12T10:17:34.681Z,10.31047
2018-11-12T10:18:33.145Z,10.31047
2018-11-12T10:19:41.525Z,10.31047
2018-11-12T10:20:47.112Z,10.31047
2018-11-12T10:21:47.654Z,10.31047
2018-11-12T10:22:46.923Z,10.31047
2018-11-12T10:23:44.389Z,10.31047
2018-11-12T10:24:44.325Z,10.31047
2018-11-12T10:25:43.831Z,10.31047
2018-11-12T10:26:41.165Z,10.31047
2018-11-12T10:27:43.686Z,10.31047
2018-11-12T10:28:46.686Z,10.26762
2018-11-12T10:29:50.772Z,10.31047
2018-11-12T10:30:49.179Z,10.31047
2018-11-12T10:31:49.469Z,10.26762
2018-11-12T10:32:50.380Z,10.31047
2018-11-12T10:34:05.516Z,10.31047
2018-11-12T10:35:05.662Z,10.31047
2018-11-12T10:36:07.743Z,10.31047
2018-11-12T10:37:06.620Z,10.26762
2018-11-12T10:38:04.993Z,10.31047
2018-11-12T10:39:03.320Z,10.26762
2018-11-12T10:40:01.269Z,10.26762
2018-11-12T10:40:59.802Z,10.26762
2018-11-12T10:41:57.348Z,10.09621
2018-11-12T10:42:59.290Z,10.26762
2018-11-12T10:44:06.171Z,10.26762
2018-11-12T10:45:05.004Z,10.26762
2018-11-12T10:46:06.412Z,10.26762
2018-11-12T10:47:06.271Z,10.26762
2018-11-12T10:48:04.770Z,10.26762
2018-11-12T10:49:02.082Z,10.26762
2018-11-12T10:50:00.844Z,10.26762
2018-11-12T10:51:05.032Z,10.26762
2018-11-12T10:51:05.251Z,10.26762
2018-11-12T10:52:03.072Z,10.26762
2018-11-12T10:53:01.386Z,10.26762
2018-11-12T10:54:03.005Z,10.26762
2018-11-12T10:55:10.757Z,10.26762
2018-11-12T10:56:11.957Z,10.26762
2018-11-12T10:57:14.143Z,10.05336
2018-11-12T10:58:12.720Z,10.26762
2018-11-12T10:59:13.547Z,10.22477
2018-11-12T11:00:10.799Z,10.26762
2018-11-12T11:01:10.120Z,10.26762
2018-11-12T11:02:08.675Z,10.22477
2018-11-12T11:03:10.065Z,10.26762
2018-11-12T11:04:08.911Z,10.22477
2018-11-12T11:05:11.220Z,10.22477
2018-11-12T11:06:13.663Z,10.22477
2018-11-12T11:07:12.847Z,10.26762
2018-11-12T11:08:12.284Z,10.22477
2018-11-12T11:09:13.239Z,10.22477
2018-11-12T11:10:12.453Z,10.22477
2018-11-12T11:11:13.238Z,10.22477
2018-11-12T11:12:10.524Z,10.01051
2018-11-12T11:13:08.140Z,10.22477
2018-11-12T11:14:06.113Z,10.22477
2018-11-12T11:15:07.055Z,10.22477
2018-11-12T11:16:05.318Z,10.22477
2018-11-12T11:17:09.189Z,10.22477
2018-11-12T11:18:08.336Z,10.22477
2018-11-12T11:19:09.683Z,10.13906
2018-11-12T11:20:07.448Z,10.22477
2018-11-12T11:21:04.650Z,10.22477
2018-11-12T11:22:02.264Z,10.22477
2018-11-12T11:23:03.181Z,10.13906
2018-11-12T11:24:08.195Z,10.13906
2018-11-12T11:25:08.628Z,10.22477
2018-11-12T11:26:06.396Z,10.13906
2018-11-12T11:27:05.902Z,10.01051
2018-11-12T11:28:03.655Z,10.13906
2018-11-12T11:29:02.738Z,10.13906
2018-11-12T11:30:09.012Z,10.13906
2018-11-12T11:31:06.381Z,10.13906
2018-11-12T11:32:04.083Z,10.13906
2018-11-12T11:33:03.289Z,10.13906